sensor_id;sensor_type;location;lat;lon;timestamp;pressure;altitude;pressure_sealevel;temperature;humidity
52735;BME280;38631;47.572;10.704;2022-10-19T00:00:21;93507.97;;;10.96;100.00
52735;BME280;38631;47.572;10.704;2022-10-19T00:02:46;93508.78;;;10.96;100.00
52735;BME280;38631;47.572;10.704;2022-10-19T00:05:11;93514.25;;;10.81;100.00
52735;BME280;38631;47.572;10.704;2022-10-19T00:07:37;93509.88;;;10.90;100.00
52735;BME280;38631;47.572;10.704;2022-10-19T00:10:03;93517.56;;;11.16;100.00
52735;BME280;38631;47.572;10.704;2022-10-19T00:12:29;93508.94;;;11.29;100.00
52735;BME280;38631;47.572;10.704;2022-10-19T00:14:55;93518.41;;;11.35;100.00
52735;BME280;38631;47.572;10.704;2022-10-19T00:17:21;93512.38;;;11.30;100.00
52735;BME280;38631;47.572;10.704;2022-10-19T00:19:46;93513.78;;;10.98;100.00
52735;BME280;38631;47.572;10.704;2022-10-19T00:22:11;93518.53;;;10.77;100.00
52735;BME280;38631;47.572;10.704;2022-10-19T00:24:37;93517.41;;;11.07;100.00
52735;BME280;38631;47.572;10.704;2022-10-19T00:27:02;93519.50;;;11.10;100.00
52735;BME280;38631;47.572;10.704;2022-10-19T00:29:27;93515.53;;;11.08;100.00
52735;BME280;38631;47.572;10.704;2022-10-19T00:31:53;93516.91;;;11.05;100.00
52735;BME280;38631;47.572;10.704;2022-10-19T00:34:18;93517.84;;;10.66;100.00
52735;BME280;38631;47.572;10.704;2022-10-19T00:36:43;93513.47;;;10.51;100.00
52735;BME280;38631;47.572;10.704;2022-10-19T00:39:14;93512.53;;;10.66;100.00
52735;BME280;38631;47.572;10.704;2022-10-19T00:41:40;93511.97;;;10.69;100.00
52735;BME280;38631;47.572;10.704;2022-10-19T00:46:39;93512.34;;;10.57;100.00
52735;BME280;38631;47.572;10.704;2022-10-19T00:49:08;93504.09;;;10.59;100.00
52735;BME280;38631;47.572;10.704;2022-10-19T00:51:36;93507.91;;;10.77;100.00
52735;BME280;38631;47.572;10.704;2022-10-19T00:54:04;93498.44;;;10.66;100.00
52735;BME280;38631;47.572;10.704;2022-10-19T00:56:31;93499.44;;;10.75;100.00
52735;BME280;38631;47.572;10.704;2022-10-19T00:58:57;93496.66;;;10.85;100.00
52735;BME280;38631;47.572;10.704;2022-10-19T01:01:23;93504.00;;;10.93;100.00
52735;BME280;38631;47.572;10.704;2022-10-19T01:03:49;93498.47;;;10.90;100.00
52735;BME280;38631;47.572;10.704;2022-10-19T01:06:16;93496.16;;;10.83;100.00
52735;BME280;38631;47.572;10.704;2022-10-19T01:08:42;93494.13;;;10.75;100.00
52735;BME280;38631;47.572;10.704;2022-10-19T01:11:25;93494.13;;;10.75;100.00
52735;BME280;38631;47.572;10.704;2022-10-19T01:14:11;93489.09;;;10.73;100.00
52735;BME280;38631;47.572;10.704;2022-10-19T01:16:49;93485.19;;;10.90;100.00
52735;BME280;38631;47.572;10.704;2022-10-19T01:19:55;93491.75;;;10.97;100.00
52735;BME280;38631;47.572;10.704;2022-10-19T01:31:36;93478.91;;;11.05;100.00
52735;BME280;38631;47.572;10.704;2022-10-19T01:33:53;93477.44;;;10.93;100.00
52735;BME280;38631;47.572;10.704;2022-10-19T01:36:45;93467.28;;;10.76;100.00
52735;BME280;38631;47.572;10.704;2022-10-19T01:39:22;93465.91;;;10.79;100.00
52735;BME280;38631;47.572;10.704;2022-10-19T01:41:59;93458.94;;;10.83;100.00
52735;BME280;38631;47.572;10.704;2022-10-19T01:44:34;93465.97;;;10.74;100.00
52735;BME280;38631;47.572;10.704;2022-10-19T01:47:09;93464.44;;;10.68;100.00
52735;BME280;38631;47.572;10.704;2022-10-19T01:50:05;93457.69;;;10.22;100.00
52735;BME280;38631;47.572;10.704;2022-10-19T01:52:35;93449.13;;;10.01;100.00
52735;BME280;38631;47.572;10.704;2022-10-19T01:55:02;93451.06;;;10.20;100.00
52735;BME280;38631;47.572;10.704;2022-10-19T01:57:32;93449.66;;;10.27;100.00
52735;BME280;38631;47.572;10.704;2022-10-19T01:59:58;93448.03;;;10.36;100.00
52735;BME280;38631;47.572;10.704;2022-10-19T02:02:35;93446.63;;;10.44;100.00
52735;BME280;38631;47.572;10.704;2022-10-19T02:05:02;93448.38;;;10.25;100.00
52735;BME280;38631;47.572;10.704;2022-10-19T02:07:29;93444.19;;;10.19;100.00
52735;BME280;38631;47.572;10.704;2022-10-19T02:09:55;93446.16;;;10.37;100.00
52735;BME280;38631;47.572;10.704;2022-10-19T02:12:21;93447.47;;;10.40;100.00
52735;BME280;38631;47.572;10.704;2022-10-19T02:14:51;93442.41;;;10.38;100.00
52735;BME280;38631;47.572;10.704;2022-10-19T02:17:27;93443.34;;;9.94;100.00
52735;BME280;38631;47.572;10.704;2022-10-19T02:19:55;93440.72;;;10.18;100.00
52735;BME280;38631;47.572;10.704;2022-10-19T02:22:21;93443.34;;;10.28;100.00
52735;BME280;38631;47.572;10.704;2022-10-19T02:24:46;93437.66;;;10.06;100.00
52735;BME280;38631;47.572;10.704;2022-10-19T02:27:12;93435.50;;;9.79;100.00
52735;BME280;38631;47.572;10.704;2022-10-19T02:29:38;93436.06;;;9.70;100.00
52735;BME280;38631;47.572;10.704;2022-10-19T02:32:05;93440.72;;;9.49;100.00
52735;BME280;38631;47.572;10.704;2022-10-19T02:34:31;93429.47;;;9.68;100.00
52735;BME280;38631;47.572;10.704;2022-10-19T02:36:57;93439.13;;;9.54;100.00
52735;BME280;38631;47.572;10.704;2022-10-19T02:39:23;93432.94;;;9.68;100.00
52735;BME280;38631;47.572;10.704;2022-10-19T02:41:57;93428.56;;;9.48;100.00
52735;BME280;38631;47.572;10.704;2022-10-19T02:44:29;93434.75;;;9.68;100.00
52735;BME280;38631;47.572;10.704;2022-10-19T02:47:26;93438.44;;;9.33;100.00
52735;BME280;38631;47.572;10.704;2022-10-19T02:49:53;93430.00;;;9.30;100.00
52735;BME280;38631;47.572;10.704;2022-10-19T02:52:19;93421.28;;;9.64;100.00
52735;BME280;38631;47.572;10.704;2022-10-19T02:54:44;93420.88;;;9.81;100.00
52735;BME280;38631;47.572;10.704;2022-10-19T02:57:21;93424.06;;;9.83;100.00
52735;BME280;38631;47.572;10.704;2022-10-19T02:59:47;93422.16;;;9.89;100.00
52735;BME280;38631;47.572;10.704;2022-10-19T03:02:14;93418.94;;;9.92;100.00
52735;BME280;38631;47.572;10.704;2022-10-19T03:04:40;93411.59;;;9.84;100.00
52735;BME280;38631;47.572;10.704;2022-10-19T03:07:15;93410.59;;;9.74;100.00
52735;BME280;38631;47.572;10.704;2022-10-19T03:09:41;93404.97;;;9.81;100.00
52735;BME280;38631;47.572;10.704;2022-10-19T03:12:06;93402.22;;;9.91;100.00
52735;BME280;38631;47.572;10.704;2022-10-19T03:14:32;93414.28;;;9.79;100.00
52735;BME280;38631;47.572;10.704;2022-10-19T03:16:58;93410.53;;;9.80;100.00
52735;BME280;38631;47.572;10.704;2022-10-19T03:19:23;93412.50;;;9.69;100.00
52735;BME280;38631;47.572;10.704;2022-10-19T03:21:48;93411.59;;;9.44;100.00
52735;BME280;38631;47.572;10.704;2022-10-19T03:24:14;93414.16;;;9.15;100.00
52735;BME280;38631;47.572;10.704;2022-10-19T03:26:39;93413.94;;;9.12;100.00
52735;BME280;38631;47.572;10.704;2022-10-19T03:29:05;93418.41;;;9.16;100.00
52735;BME280;38631;47.572;10.704;2022-10-19T03:31:30;93411.97;;;9.27;100.00
52735;BME280;38631;47.572;10.704;2022-10-19T03:33:55;93411.38;;;9.41;100.00
52735;BME280;38631;47.572;10.704;2022-10-19T03:36:26;93416.25;;;9.63;100.00
52735;BME280;38631;47.572;10.704;2022-10-19T03:38:54;93406.66;;;9.67;100.00
52735;BME280;38631;47.572;10.704;2022-10-19T03:41:22;93400.59;;;9.66;100.00
52735;BME280;38631;47.572;10.704;2022-10-19T03:43:47;93409.53;;;9.70;100.00
52735;BME280;38631;47.572;10.704;2022-10-19T03:46:13;93411.97;;;9.67;100.00
52735;BME280;38631;47.572;10.704;2022-10-19T03:48:39;93409.81;;;9.74;100.00
52735;BME280;38631;47.572;10.704;2022-10-19T03:51:07;93407.63;;;9.81;100.00
52735;BME280;38631;47.572;10.704;2022-10-19T03:53:33;93409.31;;;9.67;100.00
52735;BME280;38631;47.572;10.704;2022-10-19T03:56:12;93415.41;;;9.67;100.00
52735;BME280;38631;47.572;10.704;2022-10-19T03:58:39;93410.63;;;9.69;100.00
52735;BME280;38631;47.572;10.704;2022-10-19T04:01:13;93412.69;;;9.43;100.00
52735;BME280;38631;47.572;10.704;2022-10-19T04:03:39;93416.66;;;9.46;100.00
52735;BME280;38631;47.572;10.704;2022-10-19T04:06:08;93414.44;;;9.58;100.00
52735;BME280;38631;47.572;10.704;2022-10-19T04:08:34;93416.25;;;9.63;100.00
52735;BME280;38631;47.572;10.704;2022-10-19T04:11:01;93408.13;;;9.49;100.00
52735;BME280;38631;47.572;10.704;2022-10-19T04:13:27;93409.44;;;9.51;100.00
52735;BME280;38631;47.572;10.704;2022-10-19T04:15:52;93410.75;;;9.54;100.00
52735;BME280;38631;47.572;10.704;2022-10-19T04:18:17;93399.06;;;9.55;100.00
52735;BME280;38631;47.572;10.704;2022-10-19T04:20:43;93404.44;;;9.45;100.00
52735;BME280;38631;47.572;10.704;2022-10-19T04:23:08;93407.69;;;9.37;100.00
52735;BME280;38631;47.572;10.704;2022-10-19T04:25:34;93401.22;;;9.48;100.00
52735;BME280;38631;47.572;10.704;2022-10-19T04:27:59;93397.97;;;9.61;100.00
52735;BME280;38631;47.572;10.704;2022-10-19T04:30:24;93399.47;;;9.72;100.00
52735;BME280;38631;47.572;10.704;2022-10-19T04:32:50;93396.81;;;9.72;100.00
52735;BME280;38631;47.572;10.704;2022-10-19T04:35:15;93404.22;;;9.76;100.00
52735;BME280;38631;47.572;10.704;2022-10-19T04:37:41;93404.28;;;9.65;100.00
52735;BME280;38631;47.572;10.704;2022-10-19T04:40:07;93402.84;;;9.49;100.00
52735;BME280;38631;47.572;10.704;2022-10-19T04:42:32;93404.06;;;9.22;100.00
52735;BME280;38631;47.572;10.704;2022-10-19T04:44:57;93395.38;;;9.12;100.00
52735;BME280;38631;47.572;10.704;2022-10-19T04:47:23;93404.19;;;8.97;100.00
52735;BME280;38631;47.572;10.704;2022-10-19T04:49:48;93399.13;;;9.05;100.00
52735;BME280;38631;47.572;10.704;2022-10-19T04:52:14;93403.00;;;9.23;100.00
52735;BME280;38631;47.572;10.704;2022-10-19T04:54:39;93393.16;;;9.29;100.00
52735;BME280;38631;47.572;10.704;2022-10-19T04:57:04;93389.22;;;9.21;100.00
52735;BME280;38631;47.572;10.704;2022-10-19T04:59:30;93386.41;;;9.47;100.00
52735;BME280;38631;47.572;10.704;2022-10-19T05:01:55;93389.88;;;9.42;100.00
52735;BME280;38631;47.572;10.704;2022-10-19T05:04:20;93392.25;;;9.44;100.00
52735;BME280;38631;47.572;10.704;2022-10-19T05:06:46;93385.69;;;9.36;100.00
52735;BME280;38631;47.572;10.704;2022-10-19T05:09:11;93388.56;;;9.40;100.00
52735;BME280;38631;47.572;10.704;2022-10-19T05:11:37;93387.25;;;9.37;100.00
52735;BME280;38631;47.572;10.704;2022-10-19T05:14:02;93386.25;;;8.89;100.00
52735;BME280;38631;47.572;10.704;2022-10-19T05:16:27;93381.44;;;8.96;100.00
52735;BME280;38631;47.572;10.704;2022-10-19T05:18:54;93380.88;;;8.99;100.00
52735;BME280;38631;47.572;10.704;2022-10-19T05:21:21;93382.47;;;9.00;100.00
52735;BME280;38631;47.572;10.704;2022-10-19T05:23:50;93377.56;;;8.73;100.00
52735;BME280;38631;47.572;10.704;2022-10-19T05:26:17;93368.16;;;9.01;100.00
52735;BME280;38631;47.572;10.704;2022-10-19T05:28:48;93364.47;;;8.97;100.00
52735;BME280;38631;47.572;10.704;2022-10-19T05:31:16;93359.88;;;8.68;100.00
52735;BME280;38631;47.572;10.704;2022-10-19T05:33:42;93357.34;;;8.92;100.00
52735;BME280;38631;47.572;10.704;2022-10-19T05:36:29;93352.78;;;8.98;100.00
52735;BME280;38631;47.572;10.704;2022-10-19T05:38:59;93351.91;;;9.13;100.00
52735;BME280;38631;47.572;10.704;2022-10-19T05:41:25;93342.69;;;9.05;100.00
52735;BME280;38631;47.572;10.704;2022-10-19T05:43:52;93336.84;;;9.13;100.00
52735;BME280;38631;47.572;10.704;2022-10-19T05:46:18;93340.38;;;8.98;100.00
52735;BME280;38631;47.572;10.704;2022-10-19T05:48:44;93342.50;;;8.31;100.00
52735;BME280;38631;47.572;10.704;2022-10-19T05:51:12;93329.75;;;8.54;100.00
52735;BME280;38631;47.572;10.704;2022-10-19T05:53:39;93330.00;;;8.52;100.00
52735;BME280;38631;47.572;10.704;2022-10-19T05:56:06;93325.91;;;8.80;100.00
52735;BME280;38631;47.572;10.704;2022-10-19T05:58:33;93336.44;;;8.26;100.00
52735;BME280;38631;47.572;10.704;2022-10-19T06:00:59;93341.09;;;8.59;100.00
52735;BME280;38631;47.572;10.704;2022-10-19T06:03:25;93343.06;;;8.23;100.00
52735;BME280;38631;47.572;10.704;2022-10-19T06:05:52;93341.88;;;8.60;100.00
52735;BME280;38631;47.572;10.704;2022-10-19T06:08:18;93350.97;;;8.43;100.00
52735;BME280;38631;47.572;10.704;2022-10-19T06:10:44;93355.00;;;8.20;100.00
52735;BME280;38631;47.572;10.704;2022-10-19T06:13:11;93359.19;;;8.32;100.00
52735;BME280;38631;47.572;10.704;2022-10-19T06:15:37;93363.47;;;8.02;100.00
52735;BME280;38631;47.572;10.704;2022-10-19T06:18:05;93375.84;;;8.42;100.00
52735;BME280;38631;47.572;10.704;2022-10-19T06:20:33;93373.16;;;8.48;100.00
52735;BME280;38631;47.572;10.704;2022-10-19T06:22:59;93372.34;;;8.57;100.00
52735;BME280;38631;47.572;10.704;2022-10-19T06:25:24;93371.72;;;8.81;100.00
52735;BME280;38631;47.572;10.704;2022-10-19T06:27:49;93382.28;;;8.86;100.00
52735;BME280;38631;47.572;10.704;2022-10-19T06:30:15;93378.81;;;8.91;100.00
52735;BME280;38631;47.572;10.704;2022-10-19T06:32:40;93375.34;;;8.90;100.00
52735;BME280;38631;47.572;10.704;2022-10-19T06:35:06;93371.09;;;8.94;100.00
52735;BME280;38631;47.572;10.704;2022-10-19T06:37:31;93376.59;;;9.08;100.00
52735;BME280;38631;47.572;10.704;2022-10-19T06:39:56;93377.59;;;9.17;100.00
52735;BME280;38631;47.572;10.704;2022-10-19T06:42:22;93381.88;;;9.13;100.00
52735;BME280;38631;47.572;10.704;2022-10-19T06:44:47;93385.53;;;9.17;100.00
52735;BME280;38631;47.572;10.704;2022-10-19T06:47:12;93368.28;;;9.20;100.00
52735;BME280;38631;47.572;10.704;2022-10-19T06:49:38;93387.94;;;9.19;100.00
52735;BME280;38631;47.572;10.704;2022-10-19T06:52:03;93390.50;;;9.29;100.00
52735;BME280;38631;47.572;10.704;2022-10-19T06:54:30;93399.81;;;9.26;100.00
52735;BME280;38631;47.572;10.704;2022-10-19T06:56:55;93400.06;;;9.25;100.00
52735;BME280;38631;47.572;10.704;2022-10-19T06:59:21;93392.63;;;9.27;100.00
52735;BME280;38631;47.572;10.704;2022-10-19T07:01:46;93403.53;;;9.25;100.00
52735;BME280;38631;47.572;10.704;2022-10-19T07:04:11;93394.75;;;9.25;100.00
52735;BME280;38631;47.572;10.704;2022-10-19T07:06:37;93397.22;;;9.16;100.00
52735;BME280;38631;47.572;10.704;2022-10-19T07:09:02;93407.00;;;9.21;100.00
52735;BME280;38631;47.572;10.704;2022-10-19T07:11:28;93398.72;;;9.27;100.00
52735;BME280;38631;47.572;10.704;2022-10-19T07:13:53;93395.78;;;9.34;100.00
52735;BME280;38631;47.572;10.704;2022-10-19T07:16:19;93394.16;;;9.38;100.00
52735;BME280;38631;47.572;10.704;2022-10-19T07:18:45;93407.41;;;9.38;100.00
52735;BME280;38631;47.572;10.704;2022-10-19T07:21:13;93406.00;;;9.51;100.00
52735;BME280;38631;47.572;10.704;2022-10-19T07:23:40;93408.00;;;9.64;100.00
52735;BME280;38631;47.572;10.704;2022-10-19T07:26:18;93406.19;;;9.60;100.00
52735;BME280;38631;47.572;10.704;2022-10-19T07:28:46;93405.38;;;9.64;100.00
52735;BME280;38631;47.572;10.704;2022-10-19T07:31:13;93402.56;;;9.50;100.00
52735;BME280;38631;47.572;10.704;2022-10-19T07:33:39;93395.75;;;9.39;100.00
52735;BME280;38631;47.572;10.704;2022-10-19T07:36:07;93400.06;;;9.25;100.00
52735;BME280;38631;47.572;10.704;2022-10-19T07:38:33;93397.75;;;9.18;100.00
52735;BME280;38631;47.572;10.704;2022-10-19T07:41:05;93402.19;;;9.62;100.00
52735;BME280;38631;47.572;10.704;2022-10-19T07:43:31;93405.88;;;9.66;100.00
52735;BME280;38631;47.572;10.704;2022-10-19T07:45:58;93402.72;;;9.64;100.00
52735;BME280;38631;47.572;10.704;2022-10-19T07:48:24;93406.75;;;9.57;100.00
52735;BME280;38631;47.572;10.704;2022-10-19T07:50:49;93402.72;;;9.64;100.00
52735;BME280;38631;47.572;10.704;2022-10-19T07:53:14;93404.94;;;9.52;100.00
52735;BME280;38631;47.572;10.704;2022-10-19T07:55:40;93406.91;;;9.70;100.00
52735;BME280;38631;47.572;10.704;2022-10-19T07:58:05;93407.91;;;9.80;100.00
52735;BME280;38631;47.572;10.704;2022-10-19T08:00:30;93411.28;;;9.85;100.00
52735;BME280;38631;47.572;10.704;2022-10-19T08:02:56;93403.34;;;9.85;100.00
52735;BME280;38631;47.572;10.704;2022-10-19T08:05:21;93410.78;;;9.49;100.00
52735;BME280;38631;47.572;10.704;2022-10-19T08:07:47;93408.47;;;9.77;100.00
52735;BME280;38631;47.572;10.704;2022-10-19T08:10:12;93413.13;;;9.90;100.00
52735;BME280;38631;47.572;10.704;2022-10-19T08:12:37;93410.28;;;9.81;100.00
52735;BME280;38631;47.572;10.704;2022-10-19T08:15:03;93419.94;;;10.01;100.00
52735;BME280;38631;47.572;10.704;2022-10-19T08:17:31;93412.97;;;10.05;100.00
52735;BME280;38631;47.572;10.704;2022-10-19T08:19:58;93415.31;;;10.12;100.00
52735;BME280;38631;47.572;10.704;2022-10-19T08:22:24;93413.19;;;10.14;100.00
52735;BME280;38631;47.572;10.704;2022-10-19T08:24:49;93412.03;;;10.20;100.00
52735;BME280;38631;47.572;10.704;2022-10-19T08:27:14;93415.88;;;10.09;100.00
52735;BME280;38631;47.572;10.704;2022-10-19T08:29:40;93413.06;;;10.24;100.00
52735;BME280;38631;47.572;10.704;2022-10-19T08:32:05;93412.50;;;10.27;100.00
52735;BME280;38631;47.572;10.704;2022-10-19T08:34:30;93420.19;;;10.34;100.00
52735;BME280;38631;47.572;10.704;2022-10-19T08:36:57;93422.09;;;10.28;100.00
52735;BME280;38631;47.572;10.704;2022-10-19T08:39:22;93415.72;;;10.29;100.00
52735;BME280;38631;47.572;10.704;2022-10-19T08:45:30;93419.28;;;10.44;100.00
52735;BME280;38631;47.572;10.704;2022-10-19T08:48:21;93414.72;;;10.49;100.00
52735;BME280;38631;47.572;10.704;2022-10-19T08:50:48;93424.25;;;10.50;100.00
52735;BME280;38631;47.572;10.704;2022-10-19T08:53:23;93424.69;;;10.57;100.00
52735;BME280;38631;47.572;10.704;2022-10-19T09:01:04;93411.41;;;10.57;100.00
52735;BME280;38631;47.572;10.704;2022-10-19T09:03:51;93418.56;;;10.62;100.00
52735;BME280;38631;47.572;10.704;2022-10-19T09:06:36;93421.66;;;10.69;100.00
52735;BME280;38631;47.572;10.704;2022-10-19T09:09:08;93412.59;;;10.70;100.00
52735;BME280;38631;47.572;10.704;2022-10-19T09:11:41;93405.00;;;10.64;100.00
52735;BME280;38631;47.572;10.704;2022-10-19T09:14:22;93403.91;;;10.41;100.00
52735;BME280;38631;47.572;10.704;2022-10-19T09:16:49;93398.38;;;10.37;100.00
52735;BME280;38631;47.572;10.704;2022-10-19T09:19:22;93399.22;;;10.56;100.00
52735;BME280;38631;47.572;10.704;2022-10-19T09:21:53;93402.34;;;10.64;100.00
52735;BME280;38631;47.572;10.704;2022-10-19T09:24:27;93407.16;;;10.80;100.00
52735;BME280;38631;47.572;10.704;2022-10-19T09:26:58;93397.56;;;10.85;100.00
52735;BME280;38631;47.572;10.704;2022-10-19T09:29:44;93396.34;;;10.96;100.00
52735;BME280;38631;47.572;10.704;2022-10-19T09:32:14;93395.13;;;10.88;100.00
52735;BME280;38631;47.572;10.704;2022-10-19T09:34:47;93391.28;;;10.99;100.00
52735;BME280;38631;47.572;10.704;2022-10-19T09:37:14;93392.13;;;10.95;100.00
52735;BME280;38631;47.572;10.704;2022-10-19T09:39:39;93386.41;;;11.07;100.00
52735;BME280;38631;47.572;10.704;2022-10-19T09:42:30;93381.00;;;11.12;100.00
52735;BME280;38631;47.572;10.704;2022-10-19T09:45:05;93385.97;;;11.37;100.00
52735;BME280;38631;47.572;10.704;2022-10-19T09:47:37;93377.03;;;11.47;100.00
52735;BME280;38631;47.572;10.704;2022-10-19T09:52:42;93378.75;;;11.57;100.00
52735;BME280;38631;47.572;10.704;2022-10-19T10:00:33;93372.44;;;11.53;100.00
52735;BME280;38631;47.572;10.704;2022-10-19T10:02:58;93388.53;;;11.42;100.00
52735;BME280;38631;47.572;10.704;2022-10-19T10:05:36;93382.00;;;11.35;100.00
52735;BME280;38631;47.572;10.704;2022-10-19T10:08:03;93382.22;;;11.19;100.00
52735;BME280;38631;47.572;10.704;2022-10-19T10:10:37;93389.34;;;11.43;100.00
52735;BME280;38631;47.572;10.704;2022-10-19T10:13:04;93380.56;;;11.42;100.00
52735;BME280;38631;47.572;10.704;2022-10-19T10:15:40;93380.66;;;11.37;100.00
52735;BME280;38631;47.572;10.704;2022-10-19T10:18:13;93379.34;;;11.54;100.00
52735;BME280;38631;47.572;10.704;2022-10-19T10:20:58;93373.06;;;11.63;100.00
52735;BME280;38631;47.572;10.704;2022-10-19T10:23:27;93371.38;;;11.54;100.00
52735;BME280;38631;47.572;10.704;2022-10-19T10:25:55;93364.28;;;11.63;100.00
52735;BME280;38631;47.572;10.704;2022-10-19T10:28:24;93363.06;;;11.74;100.00
52735;BME280;38631;47.572;10.704;2022-10-19T10:30:59;93355.44;;;11.86;100.00
52735;BME280;38631;47.572;10.704;2022-10-19T10:33:27;93353.38;;;11.97;100.00
52735;BME280;38631;47.572;10.704;2022-10-19T10:35:55;93344.34;;;12.12;100.00
52735;BME280;38631;47.572;10.704;2022-10-19T10:38:27;93345.72;;;12.09;100.00
52735;BME280;38631;47.572;10.704;2022-10-19T10:41:13;93339.31;;;12.10;100.00
52735;BME280;38631;47.572;10.704;2022-10-19T10:44:02;93334.97;;;12.15;100.00
52735;BME280;38631;47.572;10.704;2022-10-19T10:46:36;93339.31;;;12.38;100.00
52735;BME280;38631;47.572;10.704;2022-10-19T10:49:07;93342.09;;;12.61;100.00
52735;BME280;38631;47.572;10.704;2022-10-19T10:51:47;93333.72;;;12.40;100.00
52735;BME280;38631;47.572;10.704;2022-10-19T10:54:20;93335.69;;;12.48;100.00
52735;BME280;38631;47.572;10.704;2022-10-19T11:04:50;93318.16;;;12.97;100.00
52735;BME280;38631;47.572;10.704;2022-10-19T11:07:19;93315.25;;;13.44;100.00
52735;BME280;38631;47.572;10.704;2022-10-19T11:09:51;93317.69;;;13.31;100.00
52735;BME280;38631;47.572;10.704;2022-10-19T11:12:22;93306.84;;;13.14;100.00
52735;BME280;38631;47.572;10.704;2022-10-19T11:14:56;93307.94;;;13.13;100.00
52735;BME280;38631;47.572;10.704;2022-10-19T11:17:29;93303.75;;;13.21;100.00
52735;BME280;38631;47.572;10.704;2022-10-19T11:19:55;93301.88;;;13.21;100.00
52735;BME280;38631;47.572;10.704;2022-10-19T11:22:44;93301.28;;;13.24;100.00
52735;BME280;38631;47.572;10.704;2022-10-19T11:25:25;93303.47;;;13.22;100.00
52735;BME280;38631;47.572;10.704;2022-10-19T11:31:18;93289.97;;;13.64;100.00
52735;BME280;38631;47.572;10.704;2022-10-19T11:36:50;93288.81;;;13.56;100.00
52735;BME280;38631;47.572;10.704;2022-10-19T11:39:40;93278.53;;;13.72;100.00
52735;BME280;38631;47.572;10.704;2022-10-19T11:45:26;93281.13;;;13.77;100.00
52735;BME280;38631;47.572;10.704;2022-10-19T11:53:20;93268.31;;;13.65;100.00
52735;BME280;38631;47.572;10.704;2022-10-19T11:58:41;93268.88;;;13.53;100.00
52735;BME280;38631;47.572;10.704;2022-10-19T12:04:05;93273.25;;;13.49;100.00
52735;BME280;38631;47.572;10.704;2022-10-19T12:06:48;93261.28;;;13.47;100.00
52735;BME280;38631;47.572;10.704;2022-10-19T12:12:14;93265.59;;;13.56;100.00
52735;BME280;38631;47.572;10.704;2022-10-19T12:14:44;93260.25;;;13.56;100.00
52735;BME280;38631;47.572;10.704;2022-10-19T12:17:19;93256.75;;;13.47;100.00
52735;BME280;38631;47.572;10.704;2022-10-19T12:19:48;93251.09;;;13.49;100.00
52735;BME280;38631;47.572;10.704;2022-10-19T12:22:19;93247.66;;;13.48;100.00
52735;BME280;38631;47.572;10.704;2022-10-19T12:24:45;93254.69;;;13.44;100.00
52735;BME280;38631;47.572;10.704;2022-10-19T12:27:13;93250.41;;;13.34;100.00
52735;BME280;38631;47.572;10.704;2022-10-19T12:29:43;93243.78;;;13.32;100.00
52735;BME280;38631;47.572;10.704;2022-10-19T12:32:10;93247.63;;;13.26;100.00
52735;BME280;38631;47.572;10.704;2022-10-19T12:37:54;93231.50;;;13.08;100.00
52735;BME280;38631;47.572;10.704;2022-10-19T12:40:27;93242.50;;;13.07;100.00
52735;BME280;38631;47.572;10.704;2022-10-19T12:45:30;93235.53;;;13.19;100.00
52735;BME280;38631;47.572;10.704;2022-10-19T12:48:23;93226.91;;;13.23;100.00
52735;BME280;38631;47.572;10.704;2022-10-19T12:58:57;93216.16;;;13.28;100.00
52735;BME280;38631;47.572;10.704;2022-10-19T13:01:43;93205.47;;;13.28;100.00
52735;BME280;38631;47.572;10.704;2022-10-19T13:04:11;93207.53;;;13.31;100.00
52735;BME280;38631;47.572;10.704;2022-10-19T13:06:46;93205.06;;;13.34;100.00
52735;BME280;38631;47.572;10.704;2022-10-19T13:09:33;93207.59;;;13.39;100.00
52735;BME280;38631;47.572;10.704;2022-10-19T13:17:07;93201.16;;;13.40;100.00
52735;BME280;38631;47.572;10.704;2022-10-19T13:19:33;93193.94;;;13.41;100.00
52735;BME280;38631;47.572;10.704;2022-10-19T13:29:44;93193.03;;;13.46;100.00
52735;BME280;38631;47.572;10.704;2022-10-19T13:35:25;93191.91;;;13.47;100.00
52735;BME280;38631;47.572;10.704;2022-10-19T13:38:09;93190.34;;;13.46;100.00
52735;BME280;38631;47.572;10.704;2022-10-19T13:43:22;93185.38;;;13.53;100.00
52735;BME280;38631;47.572;10.704;2022-10-19T13:45:54;93185.38;;;13.53;100.00
52735;BME280;38631;47.572;10.704;2022-10-19T13:48:48;93180.34;;;13.51;100.00
52735;BME280;38631;47.572;10.704;2022-10-19T13:54:25;93182.44;;;13.63;100.00
52735;BME280;38631;47.572;10.704;2022-10-19T14:11:05;93164.50;;;13.55;100.00
52735;BME280;38631;47.572;10.704;2022-10-19T14:13:35;93166.25;;;13.59;100.00
52735;BME280;38631;47.572;10.704;2022-10-19T14:16:01;93161.69;;;13.60;100.00
52735;BME280;38631;47.572;10.704;2022-10-19T14:18:32;93161.69;;;13.60;100.00
52735;BME280;38631;47.572;10.704;2022-10-19T14:21:00;93166.41;;;13.63;100.00
52735;BME280;38631;47.572;10.704;2022-10-19T14:23:31;93151.38;;;13.67;100.00
52735;BME280;38631;47.572;10.704;2022-10-19T14:26:00;93147.91;;;13.67;100.00
52735;BME280;38631;47.572;10.704;2022-10-19T14:28:26;93141.28;;;13.64;100.00
52735;BME280;38631;47.572;10.704;2022-10-19T14:30:59;93143.38;;;13.67;100.00
52735;BME280;38631;47.572;10.704;2022-10-19T14:33:27;93141.78;;;13.66;100.00
52735;BME280;38631;47.572;10.704;2022-10-19T14:35:54;93142.56;;;13.67;100.00
52735;BME280;38631;47.572;10.704;2022-10-19T14:38:34;93133.28;;;13.64;100.00
52735;BME280;38631;47.572;10.704;2022-10-19T14:41:02;93141.47;;;13.68;100.00
52735;BME280;38631;47.572;10.704;2022-10-19T14:43:33;93137.22;;;13.67;100.00
52735;BME280;38631;47.572;10.704;2022-10-19T14:46:13;93139.28;;;13.70;100.00